createdAt,value
2022-07-28T00:00:40.066Z,20.90
2022-07-28T00:03:21.848Z,20.90
2022-07-28T00:06:15.230Z,20.90
2022-07-28T00:08:52.786Z,20.80
2022-07-28T00:11:36.972Z,20.80
2022-07-28T00:14:14.735Z,20.80
2022-07-28T00:16:43.451Z,20.80
2022-07-28T00:19:12.931Z,20.70
2022-07-28T00:21:40.865Z,20.70
2022-07-28T00:24:27.902Z,20.70
2022-07-28T00:26:55.851Z,20.60
2022-07-28T00:29:23.695Z,20.60
2022-07-28T00:31:51.626Z,20.60
2022-07-28T00:34:20.873Z,20.60
2022-07-28T00:36:54.529Z,20.60
2022-07-28T00:39:23.001Z,20.50
2022-07-28T00:41:51.396Z,20.60
2022-07-28T00:44:19.296Z,20.60
2022-07-28T00:46:47.314Z,20.50
2022-07-28T00:49:16.063Z,20.50
2022-07-28T00:51:45.460Z,20.50
2022-07-28T00:54:13.823Z,20.50
2022-07-28T00:56:41.998Z,20.50
2022-07-28T00:59:10.106Z,20.50
2022-07-28T01:01:38.144Z,20.50
2022-07-28T01:04:07.118Z,20.50
2022-07-28T01:07:03.935Z,20.40
2022-07-28T01:09:42.995Z,20.40
2022-07-28T01:12:19.546Z,20.40
2022-07-28T01:14:51.092Z,20.30
2022-07-28T01:17:27.333Z,20.30
2022-07-28T01:20:05.690Z,20.30
2022-07-28T01:22:40.857Z,20.30
2022-07-28T01:25:19.568Z,20.30
2022-07-28T01:28:03.859Z,20.30
2022-07-28T01:30:40.141Z,20.30
2022-07-28T01:33:16.118Z,20.30
2022-07-28T01:35:47.385Z,20.20
2022-07-28T01:38:20.441Z,20.20
2022-07-28T01:40:50.276Z,20.20
2022-07-28T01:43:23.610Z,20.20
2022-07-28T01:45:55.952Z,20.20
2022-07-28T01:48:26.055Z,20.10
2022-07-28T01:50:55.742Z,20.10
2022-07-28T01:53:25.658Z,20.10
2022-07-28T01:55:54.547Z,20.10
2022-07-28T01:58:24.500Z,20.10
2022-07-28T02:00:54.886Z,20.10
2022-07-28T02:03:25.162Z,20.00
2022-07-28T02:05:55.853Z,20.00
2022-07-28T02:08:26.141Z,20.00
2022-07-28T02:11:15.168Z,20.00
2022-07-28T02:13:43.551Z,20.00
2022-07-28T02:16:15.431Z,20.00
2022-07-28T02:18:44.974Z,20.00
2022-07-28T02:21:14.237Z,19.90
2022-07-28T02:23:46.294Z,19.90
2022-07-28T02:26:16.067Z,19.90
2022-07-28T02:28:51.297Z,19.90
2022-07-28T02:31:26.913Z,19.90
2022-07-28T02:34:02.258Z,19.90
2022-07-28T02:36:33.608Z,19.90
2022-07-28T02:39:07.492Z,19.90
2022-07-28T02:41:45.020Z,19.80
2022-07-28T02:44:19.021Z,19.80
2022-07-28T02:46:52.609Z,19.70
2022-07-28T02:49:25.702Z,19.70
2022-07-28T02:51:54.670Z,19.70
2022-07-28T02:54:24.118Z,19.70
2022-07-28T02:56:55.155Z,19.70
2022-07-28T02:59:24.344Z,19.70
2022-07-28T03:01:54.306Z,19.70
2022-07-28T03:04:37.314Z,19.70
2022-07-28T03:07:05.852Z,19.70
2022-07-28T03:09:39.933Z,19.60
2022-07-28T03:12:08.450Z,19.60
2022-07-28T03:14:36.295Z,19.60
2022-07-28T03:17:05.757Z,19.60
2022-07-28T03:19:33.965Z,19.60
2022-07-28T03:22:02.235Z,19.60
2022-07-28T03:24:34.896Z,19.60
2022-07-28T03:27:07.883Z,19.60
2022-07-28T03:29:36.656Z,19.60
2022-07-28T03:32:07.342Z,19.50
2022-07-28T03:34:36.351Z,19.50
2022-07-28T03:37:11.057Z,19.50
2022-07-28T03:39:41.779Z,19.50
2022-07-28T03:42:10.614Z,19.50
2022-07-28T03:44:39.567Z,19.50
2022-07-28T03:47:08.851Z,19.50
2022-07-28T03:49:36.786Z,19.40
2022-07-28T03:52:04.671Z,19.40
2022-07-28T03:54:32.502Z,19.40
2022-07-28T03:57:00.285Z,19.40
2022-07-28T03:59:28.106Z,19.40
2022-07-28T04:01:57.104Z,19.40
2022-07-28T04:04:27.594Z,19.40
2022-07-28T04:06:55.403Z,19.40
2022-07-28T04:09:24.102Z,19.40
2022-07-28T04:11:51.914Z,19.40
2022-07-28T04:14:19.921Z,19.40
2022-07-28T04:16:47.947Z,19.40
2022-07-28T04:19:16.234Z,19.40
2022-07-28T04:21:45.524Z,19.50
2022-07-28T04:24:13.684Z,19.50
2022-07-28T04:26:41.595Z,19.50
2022-07-28T04:29:12.122Z,19.40
2022-07-28T04:31:39.928Z,19.30
2022-07-28T04:34:07.717Z,19.40
2022-07-28T04:36:41.728Z,19.40
2022-07-28T04:39:12.008Z,19.20
2022-07-28T04:41:41.703Z,19.40
2022-07-28T04:44:12.031Z,19.30
2022-07-28T04:46:40.177Z,19.30
2022-07-28T04:49:08.247Z,19.40
2022-07-28T04:51:37.063Z,19.40
2022-07-28T04:54:04.991Z,19.40
2022-07-28T04:56:34.145Z,19.40
2022-07-28T04:59:02.667Z,19.40
2022-07-28T05:01:32.644Z,19.40
2022-07-28T05:04:00.500Z,19.40
2022-07-28T05:06:28.319Z,19.40
2022-07-28T05:08:56.092Z,19.40
2022-07-28T05:11:23.918Z,19.40
2022-07-28T05:13:53.189Z,19.40
2022-07-28T05:16:21.296Z,19.40
2022-07-28T05:18:49.207Z,19.40
2022-07-28T05:21:17.029Z,19.50
2022-07-28T05:23:50.476Z,19.50
2022-07-28T05:26:18.348Z,19.50
2022-07-28T05:28:46.152Z,19.60
2022-07-28T05:31:15.908Z,19.60
2022-07-28T05:33:43.713Z,19.60
2022-07-28T05:36:12.866Z,19.60
2022-07-28T05:38:40.704Z,19.60
2022-07-28T05:41:08.501Z,19.70
2022-07-28T05:43:37.897Z,19.70
2022-07-28T05:46:05.976Z,19.70
2022-07-28T05:48:35.275Z,19.70
2022-07-28T05:51:04.025Z,19.70
2022-07-28T05:53:31.815Z,19.70
2022-07-28T05:56:01.543Z,19.80
2022-07-28T05:58:30.870Z,19.80
2022-07-28T06:01:00.713Z,19.80
2022-07-28T06:03:30.436Z,19.80
2022-07-28T06:06:15.326Z,19.90
2022-07-28T06:08:44.759Z,19.90
2022-07-28T06:11:22.024Z,19.90
2022-07-28T06:13:51.460Z,19.90
2022-07-28T06:16:20.747Z,19.90
2022-07-28T06:18:48.874Z,19.90
2022-07-28T06:21:18.104Z,20.00
2022-07-28T06:23:46.174Z,20.00
2022-07-28T06:26:14.081Z,20.00
2022-07-28T06:28:41.867Z,20.00
2022-07-28T06:31:09.768Z,20.00
2022-07-28T06:33:37.932Z,20.00
2022-07-28T06:36:05.958Z,19.90
2022-07-28T06:38:35.148Z,20.10
2022-07-28T06:41:02.988Z,20.10
2022-07-28T06:43:31.036Z,20.20
2022-07-28T06:45:58.874Z,20.20
2022-07-28T06:48:29.247Z,20.20
2022-07-28T06:50:59.598Z,20.20
2022-07-28T06:53:32.408Z,20.30
2022-07-28T06:56:04.160Z,20.30
2022-07-28T06:58:32.225Z,20.40
2022-07-28T07:01:00.103Z,20.40
2022-07-28T07:03:28.081Z,20.40
2022-07-28T07:05:56.047Z,20.30
2022-07-28T07:08:23.864Z,20.40
2022-07-28T07:10:51.835Z,20.40
2022-07-28T07:13:21.100Z,20.40
2022-07-28T07:15:48.926Z,20.40
2022-07-28T07:18:17.176Z,20.40
2022-07-28T07:20:45.042Z,20.50
2022-07-28T07:23:12.977Z,20.60
2022-07-28T07:25:41.309Z,20.60
2022-07-28T07:28:09.101Z,20.50
2022-07-28T07:30:38.221Z,20.60
2022-07-28T07:33:07.984Z,20.60
2022-07-28T07:35:38.362Z,20.70
2022-07-28T07:38:06.302Z,20.70
2022-07-28T07:40:34.420Z,20.70
2022-07-28T07:43:02.494Z,20.70
2022-07-28T07:45:30.316Z,20.80
2022-07-28T07:47:59.459Z,20.70
2022-07-28T07:50:27.281Z,20.70
2022-07-28T07:52:55.132Z,20.70
2022-07-28T07:55:22.944Z,20.80
2022-07-28T07:57:50.985Z,20.80
2022-07-28T08:00:28.790Z,20.80
2022-07-28T08:03:00.506Z,20.80
2022-07-28T08:05:35.442Z,20.90
2022-07-28T08:08:04.938Z,20.90
2022-07-28T08:10:32.971Z,20.90
2022-07-28T08:13:00.802Z,20.90
2022-07-28T08:15:28.868Z,21.00
2022-07-28T08:17:56.662Z,21.00
2022-07-28T08:20:25.852Z,20.90
2022-07-28T08:22:55.975Z,21.00
2022-07-28T08:25:25.006Z,21.00
2022-07-28T08:27:52.867Z,21.00
2022-07-28T08:30:21.691Z,21.20
2022-07-28T08:32:56.349Z,21.10
2022-07-28T08:35:33.513Z,21.00
2022-07-28T08:38:02.892Z,21.10
2022-07-28T08:40:32.260Z,21.20
2022-07-28T08:43:04.912Z,21.20
2022-07-28T08:45:37.303Z,21.10
2022-07-28T08:48:08.870Z,21.20
2022-07-28T08:50:39.727Z,21.20
2022-07-28T08:53:08.688Z,21.20
2022-07-28T08:55:37.713Z,21.30
2022-07-28T08:58:05.822Z,21.30
2022-07-28T09:00:33.749Z,21.30
2022-07-28T09:03:04.460Z,21.30
2022-07-28T09:05:33.106Z,21.30
2022-07-28T09:08:03.950Z,21.30
2022-07-28T09:10:32.082Z,21.40
2022-07-28T09:12:59.898Z,21.40
2022-07-28T09:15:27.922Z,21.40
2022-07-28T09:17:56.630Z,21.40
2022-07-28T09:20:25.141Z,21.40
2022-07-28T09:23:01.063Z,21.50
2022-07-28T09:25:31.200Z,21.50
2022-07-28T09:28:07.734Z,21.50
2022-07-28T09:30:36.877Z,21.50
2022-07-28T09:33:43.106Z,21.60
2022-07-28T09:36:05.473Z,21.60
2022-07-28T09:38:41.769Z,21.60
2022-07-28T09:41:10.956Z,21.60
2022-07-28T09:43:40.214Z,21.60
2022-07-28T09:46:10.051Z,21.60
2022-07-28T09:48:51.356Z,21.70
2022-07-28T09:51:21.220Z,21.70
2022-07-28T09:53:49.127Z,21.80
2022-07-28T09:56:18.729Z,21.80
2022-07-28T09:58:55.649Z,21.80
2022-07-28T10:01:25.553Z,21.80
2022-07-28T10:03:57.632Z,21.80
2022-07-28T10:06:31.860Z,21.90
2022-07-28T10:09:01.681Z,21.90
2022-07-28T10:11:31.669Z,21.90
2022-07-28T10:14:04.310Z,21.90
2022-07-28T10:16:33.565Z,21.90
2022-07-28T10:19:03.498Z,22.00
2022-07-28T10:21:34.549Z,22.00
2022-07-28T10:24:06.955Z,22.00
2022-07-28T10:26:45.852Z,22.10
2022-07-28T10:29:16.201Z,22.10
2022-07-28T10:31:49.481Z,22.10
2022-07-28T10:34:25.075Z,22.10
2022-07-28T10:36:55.279Z,22.20
2022-07-28T10:39:24.984Z,22.20
2022-07-28T10:41:55.130Z,22.20
2022-07-28T10:44:23.660Z,22.30
2022-07-28T10:46:53.009Z,22.30
2022-07-28T10:49:22.032Z,22.30
2022-07-28T10:52:06.769Z,22.30
2022-07-28T10:54:50.263Z,22.30
2022-07-28T10:57:19.860Z,22.40
2022-07-28T11:00:24.451Z,22.40
2022-07-28T11:02:58.732Z,22.50
2022-07-28T11:05:29.114Z,22.50
2022-07-28T11:07:57.365Z,22.60
2022-07-28T11:10:25.613Z,22.60
2022-07-28T11:12:56.060Z,22.60
2022-07-28T11:15:33.171Z,22.60
2022-07-28T11:18:03.162Z,22.70
2022-07-28T11:21:05.379Z,22.70
2022-07-28T11:23:54.639Z,22.70
2022-07-28T11:26:36.676Z,22.70
2022-07-28T11:29:26.483Z,22.80
2022-07-28T11:32:04.497Z,22.80
2022-07-28T11:35:08.920Z,22.80
2022-07-28T11:38:08.966Z,22.90
2022-07-28T11:40:38.755Z,22.90
2022-07-28T11:43:36.141Z,22.90
2022-07-28T11:46:38.404Z,23.00
2022-07-28T11:49:27.461Z,23.00
2022-07-28T11:52:19.575Z,23.10
2022-07-28T11:54:54.431Z,23.10
2022-07-28T11:57:27.991Z,23.20
2022-07-28T11:59:58.787Z,23.20
2022-07-28T12:02:30.148Z,23.30
2022-07-28T12:05:17.919Z,23.30
2022-07-28T12:07:48.527Z,23.40
2022-07-28T12:13:28.583Z,23.40
2022-07-28T12:15:56.533Z,23.50
2022-07-28T12:18:25.731Z,23.50
2022-07-28T12:20:54.844Z,23.60
2022-07-28T12:23:44.258Z,23.60
2022-07-28T12:26:29.228Z,23.60
2022-07-28T12:29:00.081Z,23.60
2022-07-28T12:31:32.905Z,23.70
2022-07-28T12:34:02.913Z,23.70
2022-07-28T12:36:31.105Z,23.80
2022-07-28T12:38:59.719Z,23.80
2022-07-28T12:41:33.528Z,23.90
2022-07-28T12:44:02.473Z,23.90
2022-07-28T12:46:34.222Z,24.00
2022-07-28T12:49:03.609Z,24.00
2022-07-28T12:51:35.850Z,24.10
2022-07-28T12:54:05.178Z,24.20
2022-07-28T12:56:45.890Z,24.20
2022-07-28T12:59:14.387Z,24.30
2022-07-28T13:01:52.863Z,24.30
2022-07-28T13:04:41.447Z,24.30
2022-07-28T13:07:11.129Z,24.40
2022-07-28T13:09:47.106Z,24.50
2022-07-28T13:12:18.675Z,24.50
2022-07-28T13:14:51.503Z,24.60
2022-07-28T13:17:20.671Z,24.60
2022-07-28T13:19:50.431Z,24.70
2022-07-28T13:22:27.780Z,24.70
2022-07-28T13:24:57.017Z,24.80
2022-07-28T13:27:24.944Z,24.80
2022-07-28T13:29:53.057Z,24.90
2022-07-28T13:32:20.997Z,25.00
2022-07-28T13:34:50.187Z,25.10
2022-07-28T13:37:18.574Z,25.10
2022-07-28T13:39:54.161Z,25.20
2022-07-28T13:42:23.812Z,25.30
2022-07-28T13:44:51.943Z,25.40
2022-07-28T13:47:19.955Z,25.40
2022-07-28T13:49:47.832Z,25.40
2022-07-28T13:52:32.842Z,25.50
2022-07-28T13:55:05.794Z,25.60
2022-07-28T13:57:36.718Z,25.60
2022-07-28T14:00:08.008Z,25.70
2022-07-28T14:02:36.507Z,25.70
2022-07-28T14:05:05.298Z,25.80
2022-07-28T14:07:34.466Z,25.90
2022-07-28T14:10:02.365Z,25.90
2022-07-28T14:12:30.156Z,26.00
2022-07-28T14:14:57.942Z,26.20
2022-07-28T14:17:43.404Z,27.10
2022-07-28T14:20:14.761Z,29.20
2022-07-28T14:22:44.563Z,31.60
2022-07-28T14:25:20.622Z,33.20
2022-07-28T14:27:49.367Z,34.50
2022-07-28T14:30:17.195Z,35.30
2022-07-28T14:32:45.006Z,35.90
2022-07-28T14:35:12.970Z,36.00
2022-07-28T14:38:15.743Z,36.20
2022-07-28T14:40:30.446Z,36.20
2022-07-28T14:42:58.246Z,36.00
2022-07-28T14:45:26.064Z,35.70
2022-07-28T14:47:55.138Z,35.50
2022-07-28T14:50:23.112Z,35.20
2022-07-28T14:52:50.953Z,34.90
2022-07-28T14:55:18.893Z,34.80
2022-07-28T14:57:54.411Z,34.70
2022-07-28T15:00:24.746Z,34.40
2022-07-28T15:02:53.255Z,34.30
2022-07-28T15:05:22.752Z,34.10
2022-07-28T15:07:52.162Z,34.00
2022-07-28T15:10:21.341Z,34.00
2022-07-28T15:12:51.900Z,34.00
2022-07-28T15:15:21.159Z,33.90
2022-07-28T15:17:48.953Z,33.90
2022-07-28T15:20:16.993Z,33.90
2022-07-28T15:22:44.792Z,33.80
2022-07-28T15:25:12.644Z,33.70
2022-07-28T15:27:45.548Z,33.60
2022-07-28T15:30:15.472Z,33.40
2022-07-28T15:32:56.837Z,33.30
2022-07-28T15:35:25.504Z,33.40
2022-07-28T15:37:53.398Z,33.40
2022-07-28T15:40:22.082Z,33.30
2022-07-28T15:42:49.880Z,33.30
2022-07-28T15:45:19.053Z,33.40
2022-07-28T15:47:46.847Z,33.30
2022-07-28T15:50:14.651Z,33.20
2022-07-28T15:52:42.457Z,33.10
2022-07-28T15:55:10.728Z,32.90
2022-07-28T15:57:38.675Z,32.60
2022-07-28T16:00:08.269Z,32.40
2022-07-28T16:02:37.563Z,32.40
2022-07-28T16:05:06.223Z,32.40
2022-07-28T16:07:35.643Z,32.30
2022-07-28T16:10:04.121Z,32.30
2022-07-28T16:12:32.164Z,32.10
2022-07-28T16:14:59.977Z,31.90
2022-07-28T16:17:27.784Z,31.90
2022-07-28T16:19:58.699Z,31.80
2022-07-28T16:22:30.456Z,31.80
2022-07-28T16:24:58.265Z,31.80
2022-07-28T16:27:26.102Z,31.70
2022-07-28T16:29:54.034Z,31.70
2022-07-28T16:32:21.860Z,31.50
2022-07-28T16:34:49.781Z,31.50
2022-07-28T16:37:19.815Z,31.40
2022-07-28T16:39:48.359Z,31.40
2022-07-28T16:42:16.754Z,31.30
2022-07-28T16:44:44.629Z,31.20
2022-07-28T16:47:12.497Z,31.20
2022-07-28T16:49:45.342Z,31.00
2022-07-28T16:52:13.954Z,30.90
2022-07-28T16:54:43.174Z,30.80
2022-07-28T16:57:11.081Z,30.60
2022-07-28T16:59:47.923Z,30.60
2022-07-28T17:02:16.491Z,30.50
2022-07-28T17:04:44.335Z,30.40
2022-07-28T17:07:12.794Z,30.30
2022-07-28T17:09:40.597Z,30.20
2022-07-28T17:12:10.224Z,30.10
2022-07-28T17:14:38.027Z,30.00
2022-07-28T17:17:06.342Z,29.90
2022-07-28T17:19:34.225Z,29.70
2022-07-28T17:22:05.189Z,29.60
2022-07-28T17:24:33.017Z,29.60
2022-07-28T17:29:49.955Z,29.40
2022-07-28T17:32:17.811Z,29.30
2022-07-28T17:34:45.678Z,29.20
2022-07-28T17:37:13.577Z,29.10
2022-07-28T17:39:41.425Z,29.00
2022-07-28T17:42:09.304Z,28.90
2022-07-28T17:44:37.634Z,28.80
2022-07-28T17:47:07.028Z,28.80
2022-07-28T17:49:34.886Z,28.70
2022-07-28T17:52:03.573Z,28.70
2022-07-28T17:54:51.357Z,28.60
2022-07-28T17:57:19.169Z,28.60
2022-07-28T17:59:51.383Z,28.40
2022-07-28T18:02:21.253Z,28.30
2022-07-28T18:04:49.548Z,28.20
2022-07-28T18:07:17.421Z,28.10
2022-07-28T18:09:45.213Z,28.00
2022-07-28T18:12:13.025Z,27.90
2022-07-28T18:14:40.814Z,27.80
2022-07-28T18:17:08.621Z,27.70
2022-07-28T18:19:42.149Z,27.60
2022-07-28T18:22:12.832Z,27.50
2022-07-28T18:24:40.612Z,27.40
2022-07-28T18:27:08.459Z,27.40
2022-07-28T18:29:38.558Z,27.30
2022-07-28T18:32:07.760Z,27.20
2022-07-28T18:34:40.324Z,27.10
2022-07-28T18:37:08.137Z,27.00
2022-07-28T18:39:35.906Z,27.00
2022-07-28T18:42:03.794Z,26.90
2022-07-28T18:44:31.585Z,26.80
2022-07-28T18:46:59.629Z,26.70
2022-07-28T18:49:27.495Z,26.70
2022-07-28T18:51:56.718Z,26.60
2022-07-28T18:54:27.628Z,26.50
2022-07-28T18:56:56.048Z,26.50
2022-07-28T18:59:23.904Z,26.40
2022-07-28T19:01:51.870Z,26.40
2022-07-28T19:04:20.165Z,26.40
2022-07-28T19:06:48.132Z,26.30
2022-07-28T19:09:17.257Z,26.30
2022-07-28T19:11:46.580Z,26.20
2022-07-28T19:14:15.230Z,26.10
2022-07-28T19:16:43.728Z,26.20
2022-07-28T19:19:11.550Z,26.10
2022-07-28T19:21:43.386Z,26.00
2022-07-28T19:24:11.862Z,26.00
2022-07-28T19:26:41.192Z,25.90
2022-07-28T19:29:09.179Z,25.90
2022-07-28T19:31:36.994Z,25.90
2022-07-28T19:34:04.991Z,25.80
2022-07-28T19:36:32.781Z,25.80
2022-07-28T19:39:00.715Z,25.80
2022-07-28T19:41:31.236Z,25.70
2022-07-28T19:44:00.434Z,25.70
2022-07-28T19:46:28.686Z,25.70
2022-07-28T19:48:56.758Z,25.70
2022-07-28T19:51:24.937Z,25.70
2022-07-28T19:53:52.756Z,25.60
2022-07-28T19:56:20.620Z,25.60
2022-07-28T19:58:49.929Z,25.60
2022-07-28T20:01:19.795Z,25.50
2022-07-28T20:04:01.128Z,25.60
2022-07-28T20:06:32.182Z,25.50
2022-07-28T20:09:00.248Z,25.40
2022-07-28T20:11:28.684Z,25.50
2022-07-28T20:13:56.497Z,25.40
2022-07-28T20:16:26.276Z,25.40
2022-07-28T20:18:54.203Z,25.40
2022-07-28T20:21:23.978Z,25.40
2022-07-28T20:23:53.633Z,25.30
2022-07-28T20:26:23.522Z,25.30
2022-07-28T20:28:51.849Z,25.30
2022-07-28T20:31:20.227Z,25.20
2022-07-28T20:33:49.600Z,25.20
2022-07-28T20:36:17.516Z,25.20
2022-07-28T20:38:45.583Z,25.10
2022-07-28T20:41:13.486Z,25.10
2022-07-28T20:43:41.268Z,25.10
2022-07-28T20:46:09.137Z,25.00
2022-07-28T20:48:37.115Z,25.00
2022-07-28T20:51:06.558Z,25.00
2022-07-28T20:53:34.464Z,25.00
2022-07-28T20:56:02.275Z,25.00
2022-07-28T20:58:30.199Z,24.90
2022-07-28T21:00:58.155Z,24.90
2022-07-28T21:03:26.123Z,24.90
2022-07-28T21:05:53.973Z,24.90
2022-07-28T21:08:24.474Z,24.90
2022-07-28T21:10:52.661Z,24.80
2022-07-28T21:13:20.486Z,24.80
2022-07-28T21:15:48.798Z,24.80
2022-07-28T21:18:17.971Z,24.80
2022-07-28T21:20:45.800Z,24.80
2022-07-28T21:23:13.621Z,24.70
2022-07-28T21:25:45.136Z,24.70
2022-07-28T21:28:31.094Z,24.70
2022-07-28T21:30:58.886Z,24.70
2022-07-28T21:33:26.723Z,24.70
2022-07-28T21:35:54.602Z,24.60
2022-07-28T21:38:23.013Z,24.60
2022-07-28T21:40:52.171Z,24.60
2022-07-28T21:43:19.986Z,24.60
2022-07-28T21:45:47.911Z,24.60
2022-07-28T21:48:19.037Z,24.60
2022-07-28T21:50:46.844Z,24.60
2022-07-28T21:53:17.241Z,24.50
2022-07-28T21:55:45.612Z,24.50
2022-07-28T21:58:16.007Z,24.50
2022-07-28T22:00:44.284Z,24.50
2022-07-28T22:03:12.374Z,24.50
2022-07-28T22:05:40.222Z,24.40
2022-07-28T22:08:09.331Z,24.40
2022-07-28T22:10:37.285Z,24.40
2022-07-28T22:13:05.235Z,24.30
2022-07-28T22:15:34.465Z,24.40
2022-07-28T22:18:02.306Z,24.40
2022-07-28T22:20:30.549Z,24.40
2022-07-28T22:22:58.377Z,24.30
2022-07-28T22:25:26.230Z,24.20
2022-07-28T22:27:54.695Z,24.20
2022-07-28T22:30:22.486Z,24.20
2022-07-28T22:32:51.642Z,24.20
2022-07-28T22:35:19.490Z,24.10
2022-07-28T22:37:47.338Z,24.10
2022-07-28T22:40:16.059Z,24.10
2022-07-28T22:42:44.912Z,24.10
2022-07-28T22:45:13.581Z,24.00
2022-07-28T22:47:41.754Z,24.00
2022-07-28T22:50:11.454Z,24.00
2022-07-28T22:52:39.385Z,24.00
2022-07-28T22:55:08.364Z,24.00
2022-07-28T22:57:36.193Z,23.90
2022-07-28T23:00:05.528Z,23.90
2022-07-28T23:02:35.506Z,23.80
2022-07-28T23:05:05.401Z,23.80
2022-07-28T23:07:53.076Z,23.80
2022-07-28T23:10:22.399Z,23.80
2022-07-28T23:12:50.318Z,23.80
2022-07-28T23:15:18.255Z,23.70
2022-07-28T23:17:46.064Z,23.60
2022-07-28T23:20:13.873Z,23.60
2022-07-28T23:22:43.054Z,23.60
2022-07-28T23:25:11.286Z,23.60
2022-07-28T23:27:39.101Z,23.60
2022-07-28T23:30:08.174Z,23.60
2022-07-28T23:32:35.975Z,23.50
2022-07-28T23:35:03.997Z,23.50
2022-07-28T23:37:34.331Z,23.50
2022-07-28T23:40:04.556Z,23.50
2022-07-28T23:42:32.335Z,23.40
2022-07-28T23:45:00.155Z,23.40
2022-07-28T23:47:27.967Z,23.40
2022-07-28T23:49:55.748Z,23.40
2022-07-28T23:52:23.584Z,23.30
2022-07-28T23:54:51.376Z,23.30
2022-07-28T23:57:20.591Z,23.30
2022-07-28T23:59:48.387Z,23.30
